Time;durP1;ratioP1;P1;durP2;ratioP2;P2;SDS_P1;SDS_P2;PMS_P1;PMS_P2;Temp;Humidity;BMP_temperature;BMP_pressure;BME280_temperature;BME280_humidity;BME280_pressure;Samples;Min_cycle;Max_cycle;Signal;HPM_P1;HPM_P2
2020/12/21 02:21:42;;;;;;;12.82;1.83;;;15.40;68.90;;;;;;5094688;27;20425;-46
2020/12/21 02:24:09;;;;;;;8.50;1.45;;;15.10;68.90;;;;;;5090680;28;20028;-46
2020/12/21 02:26:35;;;;;;;17.90;3.58;;;15.10;69.50;;;;;;5091310;28;20069;-46
2020/12/21 02:29:02;;;;;;;17.05;7.30;;;15.10;69.90;;;;;;5086564;28;20025;-46
2020/12/21 02:31:28;;;;;;;14.32;5.78;;;15.20;70.10;;;;;;5084424;28;20086;-46
2020/12/21 02:33:55;;;;;;;20.73;5.78;;;15.30;70.40;;;;;;5090830;28;20464;-46
2020/12/21 02:36:21;;;;;;;23.40;5.90;;;15.30;70.40;;;;;;5090681;28;20024;-46
2020/12/21 02:38:48;;;;;;;18.13;5.47;;;15.40;70.40;;;;;;5090862;28;20028;-46
2020/12/21 02:41:19;;;;;;;33.85;16.83;;;15.50;70.40;;;;;;5091069;28;20036;-46
2020/12/21 02:43:45;;;;;;;21.13;11.52;;;15.60;70.30;;;;;;5090998;28;20082;-46
2020/12/21 02:46:16;;;;;;;20.58;9.43;;;15.60;70.10;;;;;;5091587;28;20167;-46
2020/12/21 02:48:43;;;;;;;15.38;6.88;;;15.70;69.90;;;;;;5071620;28;20070;-46
2020/12/21 02:51:14;;;;;;;13.02;6.40;;;15.80;69.70;;;;;;5070667;28;20388;-46
2020/12/21 02:53:40;;;;;;;15.80;6.15;;;15.80;69.50;;;;;;5082016;28;20481;-46
2020/12/21 02:56:07;;;;;;;16.13;5.32;;;15.90;69.30;;;;;;5091184;28;20105;-46
2020/12/21 02:58:33;;;;;;;14.55;6.15;;;16.00;69.10;;;;;;5090359;28;20159;-46
2020/12/21 03:01:00;;;;;;;16.75;5.38;;;16.00;68.90;;;;;;5089996;28;20525;-46
2020/12/21 03:03:26;;;;;;;44.15;32.63;;;16.10;68.80;;;;;;5090650;28;20105;-46
2020/12/21 03:05:53;;;;;;;25.90;11.43;;;16.20;68.60;;;;;;5090268;28;20387;-46
2020/12/21 03:08:19;;;;;;;29.25;15.13;;;16.20;68.50;;;;;;5091082;28;20034;-46
2020/12/21 03:10:46;;;;;;;22.38;11.10;;;16.30;68.30;;;;;;5089249;28;20032;-47
2020/12/21 03:13:12;;;;;;;20.20;9.80;;;16.30;68.10;;;;;;5090521;28;20024;-46
2020/12/21 03:15:39;;;;;;;18.50;9.23;;;16.40;68.00;;;;;;5090202;28;20522;-47
2020/12/21 03:18:05;;;;;;;23.42;9.77;;;16.40;68.60;;;;;;5089014;28;20043;-47
2020/12/21 03:20:32;;;;;;;15.70;9.43;;;16.50;68.00;;;;;;5090425;28;20063;-47
2020/12/21 03:22:58;;;;;;;14.93;9.05;;;16.60;68.00;;;;;;5090175;28;20103;-46
2020/12/21 03:25:25;;;;;;;18.08;8.32;;;16.60;67.90;;;;;;5090306;28;20021;-46
2020/12/21 03:27:51;;;;;;;15.48;8.00;;;16.70;67.80;;;;;;5090217;28;20024;-47
2020/12/21 03:30:18;;;;;;;17.15;7.90;;;16.90;67.80;;;;;;5090171;28;20032;-46
2020/12/21 03:32:45;;;;;;;14.48;7.95;;;17.00;67.60;;;;;;5078204;28;20086;-47
2020/12/21 03:35:11;;;;;;;12.77;7.28;;;17.10;67.50;;;;;;5076584;28;20388;-47
2020/12/21 03:37:37;;;;;;;13.77;7.75;;;17.20;67.20;;;;;;5076207;28;20024;-47
2020/12/21 03:40:06;;;;;;;17.80;7.28;;;17.40;67.00;;;;;;5076020;28;20029;-47
2020/12/21 03:42:33;;;;;;;15.25;7.47;;;17.50;66.80;;;;;;5076413;28;20099;-47
2020/12/21 03:45:00;;;;;;;22.00;7.95;;;17.60;66.60;;;;;;5076619;28;20044;-47
2020/12/21 03:47:26;;;;;;;15.18;6.88;;;17.70;66.30;;;;;;5075749;28;20096;-47
2020/12/21 03:49:53;;;;;;;12.35;6.25;;;17.90;66.00;;;;;;5076337;28;20024;-47
2020/12/21 03:52:19;;;;;;;11.27;6.35;;;18.00;65.70;;;;;;5076330;28;20016;-47
2020/12/21 03:54:46;;;;;;;14.68;6.45;;;18.10;65.40;;;;;;5076535;28;20116;-47
2020/12/21 03:57:12;;;;;;;14.00;6.70;;;18.20;65.10;;;;;;5076008;28;20379;-47
2020/12/21 03:59:39;;;;;;;14.38;6.32;;;18.30;65.00;;;;;;5076090;28;20035;-47
2020/12/21 04:02:05;;;;;;;10.13;5.75;;;18.50;64.80;;;;;;5075604;28;20391;-47
2020/12/21 04:04:32;;;;;;;14.35;6.07;;;18.50;64.60;;;;;;5076074;28;20551;-47
2020/12/21 04:06:58;;;;;;;12.88;5.80;;;18.70;64.40;;;;;;5075681;28;20029;-47
2020/12/21 04:09:25;;;;;;;8.23;5.40;;;18.80;64.20;;;;;;5075689;28;20054;-47
2020/12/21 04:11:51;;;;;;;11.25;5.45;;;19.00;64.00;;;;;;5075896;28;20028;-47
2020/12/21 04:14:18;;;;;;;16.00;5.97;;;19.10;63.80;;;;;;5075362;28;20486;-46
2020/12/21 04:16:44;;;;;;;11.20;5.10;;;19.30;63.60;;;;;;5075494;28;20021;-46
2020/12/21 04:19:11;;;;;;;13.35;5.10;;;19.50;63.40;;;;;;5076069;28;20115;-46
2020/12/21 04:21:37;;;;;;;12.18;5.35;;;19.70;63.00;;;;;;5076184;28;20049;-47
2020/12/21 04:24:04;;;;;;;13.00;4.70;;;19.90;62.80;;;;;;5075579;28;20024;-46
2020/12/21 04:26:30;;;;;;;16.02;6.15;;;20.10;62.40;;;;;;5074859;28;20064;-47
2020/12/21 04:28:57;;;;;;;12.95;4.53;;;20.30;62.30;;;;;;5075325;28;20060;-47
2020/12/21 04:31:23;;;;;;;15.57;4.88;;;20.60;61.80;;;;;;5075486;28;20028;-47
2020/12/21 04:33:50;;;;;;;16.25;4.78;;;20.80;61.30;;;;;;5075474;28;20032;-47
2020/12/21 04:36:17;;;;;;;14.25;4.55;;;21.00;60.90;;;;;;5075740;28;20460;-46
2020/12/21 04:38:44;;;;;;;15.25;4.57;;;21.20;60.50;;;;;;5075121;28;20380;-46
2020/12/21 04:41:12;;;;;;;12.77;4.03;;;21.40;60.10;;;;;;5075224;28;20029;-46
2020/12/21 04:43:39;;;;;;;13.80;4.15;;;21.60;59.70;;;;;;5074330;28;20032;-47
2020/12/21 04:46:08;;;;;;;15.98;4.22;;;21.80;59.30;;;;;;5073679;28;20361;-47
2020/12/21 04:48:40;;;;;;;12.07;4.47;;;22.00;58.90;;;;;;5074643;28;20048;-47
2020/12/21 04:51:08;;;;;;;9.10;3.72;;;22.10;58.40;;;;;;5075135;28;20439;-47
2020/12/21 04:53:38;;;;;;;10.13;4.00;;;22.30;58.10;;;;;;5075087;28;20081;-47
2020/12/21 04:56:05;;;;;;;9.38;3.75;;;22.50;57.90;;;;;;5075049;28;20428;-46
2020/12/21 04:58:31;;;;;;;11.63;3.28;;;22.70;57.60;;;;;;5075009;28;20059;-46
2020/12/21 05:00:58;;;;;;;13.30;3.53;;;22.90;57.30;;;;;;5074512;28;20388;-47
2020/12/21 05:03:24;;;;;;;11.13;3.30;;;23.00;56.80;;;;;;5074467;28;20040;-46
2020/12/21 05:05:51;;;;;;;12.38;3.70;;;23.30;56.60;;;;;;5074217;28;20464;-47
2020/12/21 05:08:22;;;;;;;8.85;2.90;;;23.40;56.20;;;;;;5074798;28;20460;-47
2020/12/21 05:11:03;;;;;;;9.43;2.83;;;23.60;55.70;;;;;;5075442;28;20039;-47
2020/12/21 05:13:32;;;;;;;10.30;3.33;;;23.80;55.50;;;;;;5074788;28;20080;-46
2020/12/21 05:15:59;;;;;;;6.03;2.72;;;24.00;55.10;;;;;;5074410;28;20028;-47
2020/12/21 05:18:30;;;;;;;9.63;4.00;;;24.20;54.80;;;;;;5074861;28;20020;-47
2020/12/21 05:21:03;;;;;;;11.20;3.15;;;24.40;54.50;;;;;;5074102;28;20047;-47
2020/12/21 05:23:30;;;;;;;20.95;4.80;;;24.60;54.20;;;;;;5074443;28;20032;-47
2020/12/21 05:26:17;;;;;;;12.63;3.20;;;24.70;54.50;;;;;;5074100;28;20119;-47
2020/12/21 05:28:45;;;;;;;10.60;3.17;;;24.80;54.20;;;;;;5074509;28;20028;-47
2020/12/21 05:31:12;;;;;;;11.63;3.17;;;25.00;53.10;;;;;;5074028;28;20090;-47
2020/12/21 05:33:45;;;;;;;11.50;3.25;;;25.10;52.80;;;;;;5074909;28;20115;-46
2020/12/21 05:36:21;;;;;;;9.98;3.15;;;25.20;52.50;;;;;;5074417;28;20117;-47
2020/12/21 05:39:02;;;;;;;13.65;3.05;;;25.30;52.30;;;;;;5073746;28;20115;-47
2020/12/21 05:41:29;;;;;;;9.68;2.60;;;25.40;52.20;;;;;;5074874;28;20033;-47
2020/12/21 05:44:02;;;;;;;10.25;2.65;;;25.50;51.90;;;;;;5072927;28;20147;-46
2020/12/21 05:46:29;;;;;;;8.02;2.50;;;25.60;51.90;;;;;;5074756;28;20059;-47
2020/12/21 05:48:58;;;;;;;8.80;2.40;;;25.70;51.60;;;;;;5074363;28;20029;-47
2020/12/21 05:51:27;;;;;;;8.27;2.58;;;25.80;51.40;;;;;;5074089;28;20035;-47
2020/12/21 05:53:58;;;;;;;8.65;2.50;;;25.90;51.30;;;;;;5072729;28;20021;-47
2020/12/21 05:56:27;;;;;;;8.57;2.45;;;26.00;51.00;;;;;;5074160;28;20021;-47
2020/12/21 05:58:55;;;;;;;6.15;2.60;;;26.10;50.90;;;;;;5073731;28;20107;-47
2020/12/21 06:01:22;;;;;;;10.60;2.58;;;26.20;50.70;;;;;;5073668;28;20038;-47
2020/12/21 06:04:05;;;;;;;5.45;2.40;;;26.30;50.60;;;;;;5074442;28;20026;-46
2020/12/21 06:06:35;;;;;;;7.18;2.20;;;26.40;50.30;;;;;;5073895;28;20067;-46
2020/12/21 06:09:04;;;;;;;5.82;2.35;;;26.60;50.20;;;;;;5073267;28;20387;-46
2020/12/21 06:11:32;;;;;;;6.70;2.50;;;26.60;49.90;;;;;;5073759;28;20028;-46
2020/12/21 06:14:05;;;;;;;7.15;2.20;;;26.70;49.90;;;;;;5073817;28;20032;-47
2020/12/21 06:16:37;;;;;;;4.75;2.30;;;26.80;49.70;;;;;;5074386;28;20525;-47
2020/12/21 06:19:10;;;;;;;9.75;2.55;;;26.90;49.50;;;;;;5074151;28;20451;-47
2020/12/21 06:21:41;;;;;;;4.45;1.90;;;27.00;49.40;;;;;;5074568;28;20055;-47
2020/12/21 06:24:28;;;;;;;14.55;2.00;;;27.00;49.10;;;;;;5073608;28;20025;-47
2020/12/21 06:26:56;;;;;;;5.43;2.10;;;27.10;49.30;;;;;;5072531;28;20033;-47
2020/12/21 06:29:24;;;;;;;9.00;2.40;;;27.20;49.00;;;;;;5073637;28;20020;-46
2020/12/21 06:31:52;;;;;;;5.55;2.22;;;27.30;48.80;;;;;;5073298;28;20031;-47
2020/12/21 06:34:19;;;;;;;4.97;2.10;;;27.30;48.60;;;;;;5073702;28;20372;-47
2020/12/21 06:36:47;;;;;;;3.55;1.65;;;27.40;48.50;;;;;;5074197;28;20025;-47
2020/12/21 06:39:24;;;;;;;5.75;1.92;;;27.40;48.40;;;;;;5072450;28;20027;-47
2020/12/21 06:42:02;;;;;;;6.25;2.03;;;27.50;48.30;;;;;;5073552;28;20468;-47
2020/12/21 06:44:30;;;;;;;4.28;2.28;;;27.50;48.30;;;;;;5072174;28;20059;-47
2020/12/21 06:46:58;;;;;;;5.47;2.25;;;27.50;48.20;;;;;;5073549;28;20031;-47
2020/12/21 06:49:26;;;;;;;5.78;2.00;;;27.60;48.10;;;;;;5073701;28;20032;-47
2020/12/21 06:51:53;;;;;;;4.60;2.00;;;27.60;48.00;;;;;;5073496;28;20021;-47
2020/12/21 06:54:20;;;;;;;4.35;1.92;;;27.60;47.90;;;;;;5073189;28;20469;-47
2020/12/21 06:56:49;;;;;;;5.45;1.95;;;27.70;47.90;;;;;;5073444;28;20021;-46
2020/12/21 06:59:22;;;;;;;6.50;1.80;;;27.70;47.80;;;;;;5073145;28;20020;-46
2020/12/21 07:01:54;;;;;;;4.07;1.70;;;27.80;47.70;;;;;;5073503;28;20024;-47
2020/12/21 07:04:29;;;;;;;3.63;1.88;;;27.80;47.70;;;;;;5073120;28;20052;-46
2020/12/21 07:07:05;;;;;;;3.80;1.90;;;27.80;47.70;;;;;;5074551;28;20582;-46
2020/12/21 07:09:34;;;;;;;4.65;1.90;;;27.80;47.50;;;;;;5077053;28;20111;-46
2020/12/21 07:12:04;;;;;;;5.72;2.03;;;27.80;47.40;;;;;;5077284;28;20372;-47
2020/12/21 07:14:34;;;;;;;4.15;1.75;;;27.80;47.40;;;;;;5077522;28;20021;-47
2020/12/21 07:17:12;;;;;;;6.53;1.77;;;27.80;47.30;;;;;;5077297;28;20353;-46
2020/12/21 07:19:42;;;;;;;6.18;1.83;;;27.80;47.30;;;;;;5075857;28;20058;-47
2020/12/21 07:22:11;;;;;;;3.92;1.70;;;27.80;47.30;;;;;;5076322;28;20480;-47
2020/12/21 07:24:40;;;;;;;4.75;1.88;;;27.80;47.20;;;;;;5076673;28;20020;-47
2020/12/21 07:27:08;;;;;;;5.13;1.63;;;27.70;47.20;;;;;;5076989;28;20021;-47
2020/12/21 07:29:37;;;;;;;4.93;1.50;;;27.70;47.90;;;;;;5076216;28;20036;-47
2020/12/21 07:32:04;;;;;;;4.00;1.60;;;27.70;47.10;;;;;;5075747;28;20456;-47
2020/12/21 07:34:31;;;;;;;4.75;1.60;;;27.70;47.20;;;;;;5076380;28;20368;-47
2020/12/21 07:36:58;;;;;;;9.15;1.60;;;27.60;47.10;;;;;;5076622;28;20024;-47
2020/12/21 07:39:25;;;;;;;4.57;1.60;;;27.50;47.10;;;;;;5075611;28;20064;-47
2020/12/21 07:41:55;;;;;;;2.25;1.40;;;27.50;47.10;;;;;;5076058;28;20037;-47
2020/12/21 07:44:29;;;;;;;4.43;1.50;;;27.50;47.10;;;;;;5076774;28;20043;-47
2020/12/21 07:46:59;;;;;;;4.60;1.50;;;27.40;47.10;;;;;;5076745;28;20483;-47
2020/12/21 07:49:26;;;;;;;3.03;1.83;;;27.30;47.10;;;;;;5075939;28;20027;-47
2020/12/21 07:52:00;;;;;;;5.35;1.55;;;27.30;47.20;;;;;;5076033;28;20456;-47
2020/12/21 07:54:27;;;;;;;2.97;1.50;;;27.30;47.30;;;;;;5076592;28;20025;-47
2020/12/21 07:57:04;;;;;;;4.07;1.50;;;27.20;47.30;;;;;;5075873;28;20028;-47
2020/12/21 07:59:30;;;;;;;4.07;1.52;;;27.10;47.30;;;;;;5076591;28;20100;-47
2020/12/21 08:02:01;;;;;;;3.00;1.40;;;27.00;47.30;;;;;;5075900;28;20036;-47
2020/12/21 08:04:28;;;;;;;3.28;1.55;;;27.00;47.40;;;;;;5076136;28;20444;-47
2020/12/21 08:07:15;;;;;;;2.65;1.40;;;26.90;47.40;;;;;;5076074;28;20460;-47
2020/12/21 08:09:44;;;;;;;3.00;1.42;;;26.80;47.50;;;;;;5074898;28;20391;-47
2020/12/21 08:12:11;;;;;;;2.28;1.40;;;26.70;47.50;;;;;;5075724;28;20462;-47
2020/12/21 08:14:38;;;;;;;4.03;1.38;;;26.70;47.70;;;;;;5074373;28;20020;-49
2020/12/21 08:17:13;;;;;;;7.43;1.70;;;26.60;47.70;;;;;;5073609;28;20375;-48
2020/12/21 08:19:49;;;;;;;8.50;1.67;;;26.50;47.70;;;;;;5074513;28;20056;-47
2020/12/21 08:22:22;;;;;;;7.95;2.20;;;26.40;47.50;;;;;;5076009;28;20024;-47
2020/12/21 08:25:11;;;;;;;9.68;2.22;;;26.40;47.70;;;;;;5075734;28;20024;-47
2020/12/21 08:28:03;;;;;;;9.32;1.95;;;26.20;46.90;;;;;;5076211;28;20038;-47
2020/12/21 08:30:30;;;;;;;5.80;1.75;;;26.10;47.00;;;;;;5073525;28;20100;-46
2020/12/21 08:32:58;;;;;;;5.13;1.80;;;26.00;47.00;;;;;;5074957;28;20498;-47
2020/12/21 08:35:27;;;;;;;5.70;1.80;;;25.90;47.10;;;;;;5074098;28;20047;-46
2020/12/21 08:38:04;;;;;;;7.95;2.00;;;25.80;47.20;;;;;;5075423;28;20023;-47
2020/12/21 08:40:31;;;;;;;5.80;2.00;;;25.70;47.30;;;;;;5074509;28;20024;-47
2020/12/21 08:43:00;;;;;;;8.30;1.92;;;25.50;47.50;;;;;;5074705;28;20475;-47
2020/12/21 08:45:26;;;;;;;8.73;1.80;;;25.40;47.50;;;;;;5074641;28;20020;-47
2020/12/21 08:47:53;;;;;;;10.05;2.03;;;25.30;47.70;;;;;;5075227;28;20028;-47
2020/12/21 08:50:19;;;;;;;7.38;1.80;;;25.20;47.90;;;;;;5074837;28;20033;-47
2020/12/21 08:52:49;;;;;;;11.68;1.90;;;25.10;48.00;;;;;;5074507;28;20024;-46
2020/12/21 08:55:16;;;;;;;4.65;1.85;;;25.00;48.10;;;;;;5074926;28;20035;-47
2020/12/21 08:57:42;;;;;;;8.57;1.85;;;24.90;48.40;;;;;;5075225;28;20067;-47
2020/12/21 09:00:09;;;;;;;4.85;1.70;;;24.80;48.50;;;;;;5074090;28;20021;-47
2020/12/21 09:02:35;;;;;;;4.63;1.50;;;24.70;48.60;;;;;;5074954;28;20048;-47
2020/12/21 09:05:05;;;;;;;11.95;1.70;;;24.60;48.80;;;;;;5074383;28;20426;-46
2020/12/21 09:07:33;;;;;;;3.72;1.50;;;24.50;49.00;;;;;;5074927;28;20028;-46
2020/12/21 09:10:00;;;;;;;5.60;1.65;;;24.40;49.10;;;;;;5074401;28;20036;-46
2020/12/21 09:12:26;;;;;;;4.18;1.58;;;24.30;49.30;;;;;;5074762;28;20081;-47
2020/12/21 09:14:53;;;;;;;5.00;1.50;;;24.20;49.40;;;;;;5074523;28;20074;-47
2020/12/21 09:17:19;;;;;;;6.65;1.65;;;24.10;49.60;;;;;;5073820;28;20024;-47
2020/12/21 09:19:46;;;;;;;6.90;1.63;;;24.00;49.80;;;;;;5073651;28;20400;-46
2020/12/21 09:22:12;;;;;;;3.53;1.23;;;23.90;49.90;;;;;;5074377;28;20077;-47
2020/12/21 09:24:39;;;;;;;3.92;1.60;;;23.80;50.00;;;;;;5074520;28;20020;-46
2020/12/21 09:27:05;;;;;;;3.15;1.50;;;23.80;50.20;;;;;;5074548;28;20507;-46
2020/12/21 09:29:32;;;;;;;2.45;1.27;;;23.70;50.30;;;;;;5072973;28;20106;-46
2020/12/21 09:31:59;;;;;;;3.40;1.63;;;23.60;50.50;;;;;;5074014;28;20025;-46
2020/12/21 09:34:26;;;;;;;5.13;1.60;;;23.60;50.70;;;;;;5074127;28;20070;-47
2020/12/21 09:36:52;;;;;;;2.97;1.30;;;23.40;50.80;;;;;;5074268;28;20415;-47
2020/12/21 09:39:20;;;;;;;3.40;1.40;;;23.40;50.90;;;;;;5074850;28;20099;-46
2020/12/21 09:41:46;;;;;;;3.97;1.27;;;23.30;51.10;;;;;;5073764;28;20020;-47
2020/12/21 09:44:13;;;;;;;5.57;1.48;;;23.20;51.20;;;;;;5074401;28;20058;-46
2020/12/21 09:46:39;;;;;;;2.80;1.27;;;23.20;51.40;;;;;;5073506;28;20555;-47
2020/12/21 09:49:06;;;;;;;2.78;1.30;;;23.10;51.50;;;;;;5073855;28;20103;-47
2020/12/21 09:51:33;;;;;;;5.03;1.27;;;23.00;51.60;;;;;;5073904;28;20036;-47
2020/12/21 09:53:59;;;;;;;3.28;1.40;;;22.90;51.70;;;;;;5074034;28;20038;-47
2020/12/21 09:56:26;;;;;;;5.38;1.52;;;22.90;51.80;;;;;;5073612;28;20035;-47
2020/12/21 09:58:52;;;;;;;3.55;1.40;;;22.80;52.00;;;;;;5073322;28;20033;-46
2020/12/21 10:01:19;;;;;;;2.90;1.20;;;22.70;52.00;;;;;;5073766;28;20066;-46
2020/12/21 10:03:45;;;;;;;5.30;1.42;;;22.70;52.20;;;;;;5074026;28;20029;-47
2020/12/21 10:06:12;;;;;;;4.05;1.27;;;22.60;52.20;;;;;;5073271;28;20025;-46
2020/12/21 10:08:40;;;;;;;4.30;1.33;;;22.50;52.30;;;;;;5074012;28;20494;-46
2020/12/21 10:11:06;;;;;;;2.38;1.10;;;22.50;52.50;;;;;;5073677;28;20472;-47
2020/12/21 10:13:33;;;;;;;2.47;1.30;;;22.40;52.60;;;;;;5073212;28;20032;-46
2020/12/21 10:16:00;;;;;;;2.08;1.10;;;22.40;52.80;;;;;;5073474;28;20029;-47
2020/12/21 10:18:27;;;;;;;2.05;1.10;;;22.30;52.90;;;;;;5073772;28;20028;-46
2020/12/21 10:20:54;;;;;;;3.03;1.20;;;22.20;53.00;;;;;;5073389;28;20048;-47
2020/12/21 10:23:20;;;;;;;5.10;1.48;;;22.10;53.00;;;;;;5073506;28;20028;-46
2020/12/21 10:25:47;;;;;;;5.63;1.40;;;22.10;53.20;;;;;;5073817;28;20031;-46
2020/12/21 10:28:14;;;;;;;2.72;1.40;;;22.00;53.30;;;;;;5073761;28;20021;-46
2020/12/21 10:30:41;;;;;;;3.13;1.10;;;22.00;53.40;;;;;;5073096;28;20036;-47
2020/12/21 10:33:07;;;;;;;4.15;1.45;;;21.90;53.50;;;;;;5073714;28;20039;-47
2020/12/21 10:35:38;;;;;;;3.20;1.10;;;21.90;53.60;;;;;;5073119;28;20391;-47
2020/12/21 10:38:05;;;;;;;3.28;1.20;;;21.80;53.70;;;;;;5073322;28;20025;-47
2020/12/21 10:40:31;;;;;;;3.17;1.42;;;21.80;53.90;;;;;;5073613;28;20021;-47
2020/12/21 10:42:58;;;;;;;3.47;1.10;;;21.70;53.90;;;;;;5076403;28;20028;-47
2020/12/21 10:45:24;;;;;;;1.75;1.10;;;21.70;54.10;;;;;;5077258;28;20024;-46
2020/12/21 10:47:51;;;;;;;1.98;1.10;;;21.60;54.80;;;;;;5077201;28;20028;-47
2020/12/21 10:50:17;;;;;;;3.40;1.35;;;21.60;54.30;;;;;;5077333;28;20475;-47
2020/12/21 10:52:44;;;;;;;1.35;0.90;;;21.50;54.30;;;;;;5077365;28;20039;-47
2020/12/21 10:55:11;;;;;;;2.88;1.10;;;21.40;54.40;;;;;;5077133;28;20020;-47
2020/12/21 10:57:37;;;;;;;2.72;1.13;;;21.40;54.50;;;;;;5076657;28;20031;-46
2020/12/21 11:00:07;;;;;;;1.77;1.10;;;21.40;54.60;;;;;;5077018;28;20419;-46
2020/12/21 11:02:34;;;;;;;3.90;1.10;;;21.30;54.70;;;;;;5076830;28;20032;-47
2020/12/21 11:05:00;;;;;;;2.97;1.08;;;21.30;54.80;;;;;;5077498;28;20463;-46
2020/12/21 11:07:28;;;;;;;1.02;0.80;;;21.20;54.90;;;;;;5076907;28;20415;-47
2020/12/21 11:09:55;;;;;;;2.30;1.00;;;21.20;55.00;;;;;;5077592;28;20024;-47
2020/12/21 11:12:23;;;;;;;2.47;1.00;;;21.20;55.10;;;;;;5076659;28;20028;-47
2020/12/21 11:14:50;;;;;;;2.95;1.20;;;21.10;55.20;;;;;;5076994;28;20037;-46
2020/12/21 11:17:17;;;;;;;2.35;0.82;;;21.00;55.30;;;;;;5077012;28;20407;-47
2020/12/21 11:19:44;;;;;;;1.35;0.77;;;21.00;55.40;;;;;;5076675;28;20502;-47
2020/12/21 11:22:11;;;;;;;2.08;1.05;;;20.90;55.40;;;;;;5076033;28;20036;-47
2020/12/21 11:24:37;;;;;;;3.50;0.93;;;20.90;55.60;;;;;;5076327;28;20213;-46
2020/12/21 11:27:04;;;;;;;1.45;0.90;;;20.90;55.70;;;;;;5076505;28;20032;-47
2020/12/21 11:29:30;;;;;;;1.48;0.90;;;20.80;55.70;;;;;;5076210;28;20032;-46
2020/12/21 11:31:57;;;;;;;2.03;1.10;;;20.80;55.80;;;;;;5076503;28;20071;-47
2020/12/21 11:34:23;;;;;;;2.40;1.02;;;20.80;55.90;;;;;;5076001;28;20488;-47
2020/12/21 11:36:50;;;;;;;1.45;0.70;;;20.70;55.90;;;;;;5076401;28;20036;-46
2020/12/21 11:39:16;;;;;;;4.68;0.95;;;20.70;56.10;;;;;;5076614;28;20116;-47
2020/12/21 11:41:43;;;;;;;1.73;0.80;;;20.60;56.10;;;;;;5075939;28;20429;-47
2020/12/21 11:44:09;;;;;;;1.90;0.98;;;20.60;56.20;;;;;;5076240;28;20039;-47
2020/12/21 11:46:37;;;;;;;1.33;0.98;;;20.50;56.30;;;;;;5076193;28;20024;-47
2020/12/21 11:49:04;;;;;;;2.05;0.75;;;20.50;56.40;;;;;;5076470;28;20024;-47
2020/12/21 11:51:31;;;;;;;4.22;1.08;;;20.50;56.40;;;;;;5076083;28;20037;-46
2020/12/21 11:53:58;;;;;;;4.57;0.90;;;20.40;56.50;;;;;;5075920;28;20052;-46
2020/12/21 11:56:24;;;;;;;1.67;0.90;;;20.40;56.60;;;;;;5075989;28;20047;-46
2020/12/21 11:58:51;;;;;;;3.40;1.00;;;20.40;56.70;;;;;;5075836;28;20097;-46
2020/12/21 12:01:18;;;;;;;2.00;0.93;;;20.30;56.80;;;;;;5076003;28;20024;-46
2020/12/21 12:03:45;;;;;;;1.83;0.90;;;20.30;56.90;;;;;;5076103;28;20025;-46
2020/12/21 12:06:12;;;;;;;1.55;0.85;;;20.20;56.90;;;;;;5075439;28;20115;-46
2020/12/21 12:08:39;;;;;;;1.92;0.90;;;20.20;57.00;;;;;;5076372;28;20028;-46
2020/12/21 12:11:12;;;;;;;3.20;0.93;;;20.20;57.10;;;;;;5075423;28;20040;-47
2020/12/21 12:13:42;;;;;;;1.77;0.95;;;20.20;57.10;;;;;;5075629;28;20419;-47
2020/12/21 12:16:08;;;;;;;0.80;0.80;;;20.10;57.20;;;;;;5075897;28;20027;-46
2020/12/21 12:18:34;;;;;;;0.88;0.73;;;20.10;57.20;;;;;;5075852;28;20027;-46
2020/12/21 12:21:01;;;;;;;1.52;0.98;;;20.00;57.20;;;;;;5075139;28;20098;-47
2020/12/21 17:05:08;;;;;;;46.13;22.02;;;16.10;66.60;;;;;;5133082;27;20462;-46
2020/12/21 17:07:35;;;;;;;165.18;117.20;;;16.20;67.90;;;;;;5091232;28;20024;-46
2020/12/21 17:10:01;;;;;;;120.25;74.68;;;16.30;67.60;;;;;;5081439;28;20056;-46
2020/12/21 17:12:28;;;;;;;132.63;82.40;;;16.30;67.30;;;;;;5069580;28;20037;-46
2020/12/21 17:14:54;;;;;;;260.95;141.07;;;16.40;67.10;;;;;;5071097;28;20111;-47
2020/12/21 17:17:21;;;;;;;97.05;55.92;;;16.40;66.90;;;;;;5070784;28;20394;-46
2020/12/21 17:19:50;;;;;;;73.85;42.35;;;16.50;66.70;;;;;;5070426;28;20025;-47
2020/12/21 17:22:17;;;;;;;55.45;33.15;;;16.50;66.60;;;;;;5070901;28;20036;-46
2020/12/21 17:24:43;;;;;;;59.00;30.73;;;16.60;66.40;;;;;;5069775;28;20440;-46
2020/12/21 17:27:10;;;;;;;49.45;29.25;;;16.60;66.20;;;;;;5070546;28;20086;-46
2020/12/21 17:29:36;;;;;;;52.00;26.02;;;16.70;66.00;;;;;;5070505;28;20024;-46
2020/12/21 17:32:03;;;;;;;48.53;24.42;;;16.80;65.90;;;;;;5070076;28;20111;-46
2020/12/21 17:34:30;;;;;;;47.50;22.90;;;16.80;65.70;;;;;;5070424;28;20075;-46
2020/12/21 17:36:56;;;;;;;46.50;21.35;;;16.80;65.60;;;;;;5069995;28;20093;-46
2020/12/21 17:39:23;;;;;;;38.47;21.48;;;16.90;65.50;;;;;;5069951;28;20060;-46
2020/12/21 17:41:52;;;;;;;31.45;19.40;;;16.90;65.40;;;;;;5070281;28;20112;-46
2020/12/21 17:44:19;;;;;;;40.67;20.98;;;17.00;65.30;;;;;;5069986;28;20031;-46
2020/12/21 17:46:45;;;;;;;56.60;36.70;;;17.00;65.20;;;;;;5069666;28;20036;-46
2020/12/21 17:49:12;;;;;;;54.00;28.45;;;17.10;65.20;;;;;;5070047;28;20505;-45
2020/12/21 17:51:43;;;;;;;33.17;21.75;;;17.20;65.20;;;;;;5069880;28;20028;-46
2020/12/21 17:54:10;;;;;;;35.72;20.23;;;17.30;65.30;;;;;;5069803;28;20522;-45
2020/12/21 17:56:36;;;;;;;34.30;19.98;;;17.30;65.20;;;;;;5069916;28;20021;-45
2020/12/21 17:59:03;;;;;;;32.58;19.42;;;17.30;65.20;;;;;;5069836;28;20020;-46
2020/12/21 18:01:29;;;;;;;33.55;19.80;;;17.40;65.10;;;;;;5068378;28;20476;-46
2020/12/21 18:04:05;;;;;;;36.85;19.90;;;17.40;65.00;;;;;;5063906;28;20049;-46
2020/12/21 18:06:31;;;;;;;35.45;18.65;;;17.50;64.90;;;;;;5043344;28;20025;-46
2020/12/21 18:08:58;;;;;;;35.97;18.80;;;17.50;64.70;;;;;;5055931;28;20032;-46
2020/12/21 18:11:25;;;;;;;37.15;17.90;;;17.60;64.50;;;;;;5055144;28;20111;-46
2020/12/21 18:13:52;;;;;;;31.50;17.58;;;17.60;64.40;;;;;;5053984;28;20134;-46
2020/12/21 18:16:19;;;;;;;36.85;18.42;;;17.70;64.20;;;;;;5055116;28;20489;-46
2020/12/21 18:18:45;;;;;;;36.47;17.60;;;17.70;64.00;;;;;;5055367;28;20040;-46
2020/12/21 18:21:12;;;;;;;30.05;18.00;;;17.70;63.90;;;;;;5055879;28;20025;-45
2020/12/21 18:23:38;;;;;;;35.53;17.88;;;17.70;63.70;;;;;;5055965;28;20031;-46
2020/12/21 18:26:05;;;;;;;34.88;17.27;;;17.80;63.60;;;;;;5055629;28;20119;-46
2020/12/21 18:28:31;;;;;;;62.40;42.35;;;17.80;63.50;;;;;;5055363;28;20462;-46
2020/12/21 18:30:58;;;;;;;55.30;33.70;;;17.90;63.40;;;;;;5054399;28;20032;-46
2020/12/21 18:33:24;;;;;;;35.83;20.75;;;17.80;63.30;;;;;;5056107;28;20060;-46
2020/12/21 18:35:52;;;;;;;39.80;18.52;;;17.90;63.20;;;;;;5056193;28;20056;-46
2020/12/21 18:38:19;;;;;;;33.92;18.65;;;17.90;63.20;;;;;;5055669;28;20025;-46
2020/12/21 18:40:45;;;;;;;30.48;16.55;;;17.90;63.20;;;;;;5055883;28;20086;-46
2020/12/21 18:43:12;;;;;;;32.95;16.83;;;18.00;63.30;;;;;;5055717;28;20025;-46
2020/12/21 18:45:38;;;;;;;28.80;15.48;;;18.00;63.30;;;;;;5055774;28;20025;-46
2020/12/21 18:48:05;;;;;;;29.33;16.17;;;18.10;63.40;;;;;;5056044;28;20033;-46
2020/12/21 18:50:31;;;;;;;30.98;15.32;;;18.30;63.30;;;;;;5055704;28;20026;-46
2020/12/21 18:52:59;;;;;;;29.42;14.00;;;18.40;63.20;;;;;;5055252;28;20033;-46
2020/12/21 18:55:26;;;;;;;24.00;13.82;;;18.60;63.10;;;;;;5055372;28;20040;-46
2020/12/21 18:57:52;;;;;;;28.17;13.20;;;18.70;62.80;;;;;;5055576;28;20017;-46
2020/12/21 19:00:19;;;;;;;23.55;13.02;;;18.90;62.60;;;;;;5055524;28;20043;-46
2020/12/21 19:02:45;;;;;;;22.77;12.40;;;19.10;62.30;;;;;;5055501;28;20040;-46
2020/12/21 19:05:12;;;;;;;20.88;11.77;;;19.20;62.00;;;;;;5055233;28;20025;-46
2020/12/21 19:07:39;;;;;;;22.35;11.27;;;19.40;61.60;;;;;;5055379;28;20017;-46
2020/12/21 19:10:06;;;;;;;21.55;11.93;;;19.60;61.30;;;;;;5055524;28;20025;-46
2020/12/21 19:12:33;;;;;;;19.08;10.70;;;19.80;61.00;;;;;;5054907;28;20367;-46
2020/12/21 19:15:00;;;;;;;17.55;10.18;;;20.00;60.70;;;;;;5055222;28;20025;-46
2020/12/21 19:17:26;;;;;;;20.00;10.23;;;20.10;60.90;;;;;;5054179;28;20052;-46
2020/12/21 19:19:53;;;;;;;19.95;9.77;;;20.30;60.00;;;;;;5055202;28;20028;-46
2020/12/21 19:22:19;;;;;;;19.10;9.63;;;20.50;59.70;;;;;;5054829;28;20032;-46
2020/12/21 19:24:46;;;;;;;18.65;9.02;;;20.60;59.30;;;;;;5055076;28;20133;-46
2020/12/21 19:27:12;;;;;;;14.27;8.80;;;20.70;58.90;;;;;;5055013;28;20455;-46
2020/12/21 19:29:42;;;;;;;16.05;8.98;;;20.90;58.70;;;;;;5054948;28;20091;-46
2020/12/21 19:32:08;;;;;;;15.15;8.20;;;21.00;58.30;;;;;;5054534;28;20493;-46
2020/12/21 19:34:35;;;;;;;14.32;8.45;;;21.10;57.90;;;;;;5054842;28;20474;-46
2020/12/21 19:37:02;;;;;;;18.13;7.93;;;21.30;57.70;;;;;;5054839;28;20028;-46
2020/12/21 19:39:30;;;;;;;13.70;7.38;;;21.40;57.40;;;;;;5054551;28;20028;-46
2020/12/21 19:41:56;;;;;;;14.88;7.50;;;21.50;57.10;;;;;;5054974;28;20033;-46
2020/12/21 19:44:26;;;;;;;11.75;7.55;;;21.60;56.90;;;;;;5054889;28;20054;-46
2020/12/21 19:46:53;;;;;;;10.88;7.25;;;21.70;56.60;;;;;;5054432;28;20166;-47